Time;durP1;ratioP1;P1;durP2;ratioP2;P2;SDS_P1;SDS_P2;PMS_P1;PMS_P2;Temp;Humidity;BMP_temperature;BMP_pressure;BME280_temperature;BME280_humidity;BME280_pressure;Samples;Min_cycle;Max_cycle;Signal;HPM_P1;HPM_P2
2023/06/02 00:01:31;;;;;;;10.20;4.18;;;;;;;12.08;100.00;101646.13;5011039;28;20041;-69
2023/06/02 00:04:01;;;;;;;11.30;3.00;;;;;;;12.06;100.00;101653.31;5007184;28;20061;-73
2023/06/02 00:06:37;;;;;;;9.70;4.38;;;;;;;12.06;100.00;101653.31;5007848;28;20046;-72
2023/06/02 00:09:04;;;;;;;15.10;3.92;;;;;;;12.01;100.00;101657.31;5006852;28;20112;-75
2023/06/02 00:11:34;;;;;;;13.70;4.13;;;;;;;11.97;100.00;101650.97;5014278;28;20144;-70
2023/06/02 00:14:02;;;;;;;15.65;4.13;;;;;;;12.00;100.00;101652.16;5007928;28;20516;-71
2023/06/02 00:16:29;;;;;;;10.77;3.63;;;;;;;11.96;100.00;101654.94;5006522;28;20137;-73
2023/06/02 00:18:56;;;;;;;14.77;4.25;;;;;;;11.96;100.00;101651.38;5007443;28;20088;-72
2023/06/02 00:21:23;;;;;;;11.30;3.95;;;;;;;11.91;100.00;101649.78;5005845;28;20496;-71
2023/06/02 00:23:50;;;;;;;10.45;3.70;;;;;;;11.84;100.00;101647.03;5007152;28;20124;-72
2023/06/02 00:26:17;;;;;;;19.60;4.30;;;;;;;11.86;100.00;101650.22;5005493;28;20046;-75
2023/06/02 00:28:44;;;;;;;17.33;4.30;;;;;;;11.84;100.00;101646.22;5006729;28;20424;-75
2023/06/02 00:31:11;;;;;;;20.58;4.47;;;;;;;11.87;100.00;101651.81;5007185;28;20085;-74
2023/06/02 00:33:38;;;;;;;14.45;3.60;;;;;;;11.79;100.00;101647.44;5010843;28;20050;-71
2023/06/02 00:36:05;;;;;;;13.25;4.05;;;;;;;11.69;100.00;101655.84;4998560;28;20099;-71
2023/06/02 00:38:32;;;;;;;11.60;3.63;;;;;;;11.67;100.00;101650.69;5007497;28;20193;-70
2023/06/02 00:40:59;;;;;;;10.18;3.85;;;;;;;11.69;100.00;101651.09;5006673;28;20558;-75
2023/06/02 00:43:25;;;;;;;11.52;3.80;;;;;;;11.65;100.00;101644.69;5007353;28;20419;-74
2023/06/02 00:45:52;;;;;;;8.52;3.30;;;;;;;11.65;100.00;101643.94;5022075;28;20060;-73
2023/06/02 00:48:18;;;;;;;14.02;3.83;;;;;;;11.67;100.00;101649.88;5013474;28;20453;-72
2023/06/02 00:50:45;;;;;;;16.33;3.97;;;;;;;11.60;100.00;101647.91;5013032;28;20564;-72
2023/06/02 00:53:11;;;;;;;12.20;4.18;;;;;;;11.60;100.00;101647.91;5014149;28;20424;-74
2023/06/02 00:55:38;;;;;;;14.48;3.90;;;;;;;11.63;100.00;101647.13;5012666;28;20142;-75
2023/06/02 00:58:07;;;;;;;12.30;4.25;;;;;;;11.61;100.00;101649.50;5005513;28;20141;-73
2023/06/02 01:00:36;;;;;;;20.83;4.07;;;;;;;11.55;100.00;101651.09;5021070;28;20041;-74
2023/06/02 01:03:04;;;;;;;18.92;4.60;;;;;;;11.55;100.00;101653.88;5016511;28;20590;-73
2023/06/02 01:05:31;;;;;;;14.85;4.40;;;;;;;11.55;100.00;101656.66;5019360;28;20722;-72
2023/06/02 01:08:04;;;;;;;20.88;3.78;;;;;;;11.54;100.00;101657.88;5013345;28;20074;-74
2023/06/02 01:10:31;;;;;;;14.25;3.75;;;;;;;11.47;100.00;101654.31;5011308;28;20054;-73
2023/06/02 01:12:58;;;;;;;13.98;5.07;;;;;;;11.45;100.00;101654.69;5016079;28;20145;-73
2023/06/02 01:15:32;;;;;;;15.82;4.20;;;;;;;11.44;100.00;101657.88;5017570;28;20100;-73
2023/06/02 01:17:59;;;;;;;18.85;4.35;;;;;;;11.35;100.00;101651.94;5013545;28;20049;-73
2023/06/02 01:20:28;;;;;;;16.85;4.18;;;;;;;11.23;100.00;101644.00;5012988;28;20096;-75
2023/06/02 01:23:09;;;;;;;16.15;4.20;;;;;;;11.18;100.00;101647.19;5013565;28;20061;-73
2023/06/02 01:25:36;;;;;;;14.88;4.05;;;;;;;11.18;100.00;101641.59;5013103;28;20111;-75
2023/06/02 01:28:06;;;;;;;20.00;5.60;;;;;;;11.17;100.00;101646.38;5013215;28;20049;-69
2023/06/02 01:30:34;;;;;;;17.48;4.68;;;;;;;11.09;100.00;101644.00;5021591;28;20088;-75
2023/06/02 01:33:19;;;;;;;16.02;4.32;;;;;;;11.14;100.00;101638.81;5016321;28;20049;-73
2023/06/02 01:35:48;;;;;;;16.70;4.37;;;;;;;11.14;100.00;101649.94;5014051;28;20049;-72
2023/06/02 01:38:18;;;;;;;17.77;5.00;;;;;;;11.22;100.00;101645.19;5018745;28;20077;-74
2023/06/02 01:40:46;;;;;;;17.95;4.13;;;;;;;11.17;100.00;101634.47;5013015;28;20057;-74
2023/06/02 01:43:14;;;;;;;16.90;4.95;;;;;;;11.07;100.00;101635.25;5013137;28;20116;-72
2023/06/02 01:45:42;;;;;;;17.83;4.78;;;;;;;11.08;100.00;101640.44;5013329;28;20057;-73
2023/06/02 01:48:10;;;;;;;14.77;4.38;;;;;;;11.10;100.00;101642.78;5013402;28;20042;-73
2023/06/02 01:50:37;;;;;;;15.68;4.68;;;;;;;11.10;100.00;101637.22;5012817;28;20097;-75
2023/06/02 01:53:05;;;;;;;18.38;5.35;;;;;;;11.00;100.00;101632.50;5013098;28;20090;-69
2023/06/02 01:55:33;;;;;;;20.75;4.53;;;;;;;11.08;100.00;101628.50;5010713;28;20064;-73
2023/06/02 01:58:00;;;;;;;16.63;4.30;;;;;;;11.10;100.00;101631.66;5008800;28;21302;-70
2023/06/02 02:00:27;;;;;;;16.85;4.93;;;;;;;11.09;100.00;101627.28;5009925;28;20081;-73
2023/06/02 02:02:54;;;;;;;19.83;4.80;;;;;;;11.05;100.00;101634.84;5013136;28;20467;-75
2023/06/02 02:05:21;;;;;;;20.55;4.60;;;;;;;11.10;100.00;101634.44;5019313;28;20054;-74
2023/06/02 02:07:50;;;;;;;15.48;4.10;;;;;;;11.07;100.00;101636.03;5010761;28;20049;-73
2023/06/02 02:10:17;;;;;;;14.32;4.72;;;;;;;11.01;100.00;101634.84;5014671;28;20054;-74
2023/06/02 02:12:44;;;;;;;19.85;4.85;;;;;;;10.99;100.00;101631.69;5009633;28;20062;-74
2023/06/02 02:15:10;;;;;;;12.75;4.20;;;;;;;11.01;100.00;101634.84;5009794;28;20515;-72
2023/06/02 02:17:44;;;;;;;17.20;4.40;;;;;;;10.99;100.00;101640.03;5017663;28;20097;-73
2023/06/02 02:20:16;;;;;;;15.18;4.20;;;;;;;10.98;100.00;101632.88;5013742;28;20076;-74
2023/06/02 02:22:43;;;;;;;18.92;4.80;;;;;;;11.07;100.00;101640.84;5012251;28;20090;-72
2023/06/02 02:25:10;;;;;;;18.90;5.50;;;;;;;10.92;100.00;101633.66;5009452;28;20092;-73
2023/06/02 02:27:37;;;;;;;22.88;5.18;;;;;;;10.95;100.00;101639.25;5009723;28;20146;-74
2023/06/02 02:30:05;;;;;;;18.35;5.68;;;;;;;10.97;100.00;101641.63;5008969;28;20141;-73
2023/06/02 02:32:34;;;;;;;14.27;4.35;;;;;;;10.97;100.00;101641.63;5013071;28;20094;-73
2023/06/02 02:35:03;;;;;;;16.00;4.20;;;;;;;10.95;100.00;101642.03;5008847;28;20369;-72
2023/06/02 02:37:29;;;;;;;15.68;4.68;;;;;;;10.96;100.00;101635.25;5008507;28;20100;-73
2023/06/02 02:40:11;;;;;;;19.65;4.47;;;;;;;10.99;100.00;101634.47;5009720;28;20050;-71
2023/06/02 02:42:38;;;;;;;16.20;4.18;;;;;;;11.01;100.00;101639.63;5009656;28;20107;-74
2023/06/02 02:45:05;;;;;;;18.20;4.57;;;;;;;10.97;100.00;101636.84;5006479;28;20052;-75
2023/06/02 02:47:34;;;;;;;16.75;4.28;;;;;;;10.92;100.00;101644.78;5008590;28;20595;-74
2023/06/02 02:50:01;;;;;;;14.68;4.20;;;;;;;10.91;100.00;101638.44;5008825;28;20471;-72
2023/06/02 02:52:28;;;;;;;19.20;5.20;;;;;;;10.91;100.00;101641.22;5008812;28;20527;-76
2023/06/02 02:54:54;;;;;;;21.73;4.25;;;;;;;10.93;100.00;101630.47;5006966;28;20058;-74
2023/06/02 02:57:21;;;;;;;19.27;4.28;;;;;;;10.94;100.00;101639.63;5009459;28;20092;-73
2023/06/02 02:59:47;;;;;;;15.48;4.72;;;;;;;10.87;100.00;101634.84;5006583;28;20057;-74
2023/06/02 03:02:19;;;;;;;17.65;5.63;;;;;;;10.86;100.00;101641.63;5012570;28;20089;-74
2023/06/02 03:04:46;;;;;;;20.05;4.85;;;;;;;10.88;100.00;101644.00;5006323;28;20104;-74
2023/06/02 03:07:13;;;;;;;14.02;3.70;;;;;;;10.90;100.00;101644.41;5015938;28;20472;-74
2023/06/02 03:09:40;;;;;;;21.90;4.95;;;;;;;10.93;100.00;101649.97;5008659;28;20053;-73
2023/06/02 03:12:07;;;;;;;16.38;4.45;;;;;;;10.92;100.00;101647.56;5007555;28;20407;-74
2023/06/02 03:14:34;;;;;;;19.20;5.88;;;;;;;10.88;100.00;101650.38;5012859;28;20548;-74
2023/06/02 03:17:01;;;;;;;18.35;4.38;;;;;;;10.91;100.00;101641.22;5008679;28;20038;-75
2023/06/02 03:19:28;;;;;;;18.20;4.30;;;;;;;10.90;100.00;101647.19;5008286;28;20049;-74
2023/06/02 03:21:58;;;;;;;15.68;4.32;;;;;;;10.91;100.00;101651.56;5022348;28;20081;-74
2023/06/02 03:24:24;;;;;;;27.50;6.28;;;;;;;10.90;100.00;101647.97;5009406;28;20045;-73
2023/06/02 03:26:51;;;;;;;18.13;4.60;;;;;;;10.95;100.00;101658.72;5007956;28;20073;-74
2023/06/02 03:29:19;;;;;;;18.88;4.88;;;;;;;10.92;100.00;101662.28;5008795;28;20073;-73
2023/06/02 03:31:46;;;;;;;24.13;4.53;;;;;;;10.95;100.00;101653.16;5011087;28;20091;-75
2023/06/02 03:34:13;;;;;;;22.30;5.22;;;;;;;10.97;100.00;101658.31;5007278;28;20128;-73
2023/06/02 03:36:42;;;;;;;20.23;4.53;;;;;;;10.90;100.00;101661.88;5007948;28;20052;-73
2023/06/02 03:39:09;;;;;;;19.63;5.60;;;;;;;10.98;100.00;101668.25;5010348;28;20073;-73
2023/06/02 03:41:37;;;;;;;17.90;5.03;;;;;;;10.97;100.00;101659.09;5007324;28;20050;-74
2023/06/02 03:44:04;;;;;;;19.10;4.93;;;;;;;10.89;100.00;101665.06;5015929;28;20128;-76
2023/06/02 03:46:31;;;;;;;13.80;4.80;;;;;;;10.91;100.00;101659.91;5008153;28;20103;-73
2023/06/02 03:48:58;;;;;;;17.98;5.07;;;;;;;10.89;100.00;101651.97;5019039;28;20081;-73
2023/06/02 03:51:25;;;;;;;22.17;5.70;;;;;;;10.87;100.00;101662.66;5012943;28;20069;-73
2023/06/02 03:53:52;;;;;;;18.92;4.95;;;;;;;10.88;100.00;101660.69;5007569;28;20386;-74
2023/06/02 03:56:22;;;;;;;24.77;6.05;;;;;;;10.86;100.00;101663.06;5008337;28;20045;-74
2023/06/02 03:58:49;;;;;;;18.08;5.10;;;;;;;10.85;100.00;101665.06;5007595;28;20050;-74
2023/06/02 04:01:17;;;;;;;17.88;4.88;;;;;;;10.90;100.00;101669.44;5006720;28;20781;-75
2023/06/02 04:03:43;;;;;;;16.60;5.85;;;;;;;10.93;100.00;101675.00;5010417;28;20073;-74
2023/06/02 04:06:11;;;;;;;17.35;4.95;;;;;;;10.91;100.00;101680.16;5006432;28;20045;-75
2023/06/02 04:08:37;;;;;;;16.95;4.35;;;;;;;10.87;100.00;101671.03;5006267;28;20042;-72
2023/06/02 04:11:04;;;;;;;20.42;5.55;;;;;;;10.96;100.00;101681.75;5015156;28;20046;-73
2023/06/02 04:13:31;;;;;;;19.23;5.68;;;;;;;10.89;100.00;101677.00;5007965;28;20042;-73
2023/06/02 04:15:58;;;;;;;17.67;4.53;;;;;;;10.96;100.00;101679.78;5015652;28;20443;-74
2023/06/02 04:18:26;;;;;;;14.80;4.18;;;;;;;10.94;100.00;101682.16;5006978;28;20054;-74
2023/06/02 04:20:53;;;;;;;20.02;4.95;;;;;;;10.88;100.00;101677.38;5007652;28;20108;-73
2023/06/02 04:23:19;;;;;;;13.85;4.90;;;;;;;10.88;100.00;101685.75;5012842;28;20496;-73
2023/06/02 04:25:46;;;;;;;25.92;5.97;;;;;;;10.85;100.00;101681.75;5013892;28;20565;-76
2023/06/02 04:28:12;;;;;;;18.23;4.53;;;;;;;10.84;100.00;101685.72;5007593;28;20076;-73
2023/06/02 04:30:39;;;;;;;20.58;5.35;;;;;;;10.79;100.00;101676.97;5006349;28;20500;-72
2023/06/02 04:33:06;;;;;;;17.05;4.53;;;;;;;10.85;100.00;101692.09;5010617;28;20135;-74
2023/06/02 04:35:35;;;;;;;14.90;4.60;;;;;;;10.83;100.00;101684.13;5006219;28;20046;-75
2023/06/02 04:38:02;;;;;;;16.42;4.72;;;;;;;10.79;100.00;101686.13;5005360;28;20046;-74
2023/06/02 04:40:29;;;;;;;16.35;4.55;;;;;;;10.76;100.00;101680.53;5017578;28;20073;-75
2023/06/02 04:42:56;;;;;;;18.05;4.75;;;;;;;10.76;100.00;101692.47;5007081;28;20053;-76
2023/06/02 04:45:23;;;;;;;18.10;5.45;;;;;;;10.81;100.00;101692.09;5019759;28;20678;-73
2023/06/02 04:47:50;;;;;;;19.70;4.72;;;;;;;10.80;100.00;101681.38;5009468;28;20046;-74
2023/06/02 04:50:17;;;;;;;15.73;5.20;;;;;;;10.78;100.00;101690.09;5004507;28;20048;-75
2023/06/02 04:52:44;;;;;;;18.50;6.07;;;;;;;10.73;100.00;101695.28;5008254;28;20124;-76
2023/06/02 04:55:11;;;;;;;18.67;5.55;;;;;;;10.75;100.00;101698.44;5007932;28;20046;-74
2023/06/02 04:57:38;;;;;;;17.52;5.18;;;;;;;10.68;100.00;101688.09;5018170;28;20060;-75
2023/06/02 05:00:07;;;;;;;18.88;5.40;;;;;;;10.76;100.00;101686.91;5005295;28;20630;-72
2023/06/02 05:02:34;;;;;;;18.33;4.95;;;;;;;10.70;100.00;101694.06;5010676;28;20038;-72
2023/06/02 05:05:02;;;;;;;22.05;5.35;;;;;;;10.78;100.00;101698.44;5005405;28;20396;-76
2023/06/02 05:07:29;;;;;;;24.50;5.82;;;;;;;10.77;100.00;101690.50;5007217;28;20072;-75
2023/06/02 05:09:56;;;;;;;12.77;4.93;;;;;;;10.83;100.00;101695.25;5005575;28;20046;-76
2023/06/02 05:12:25;;;;;;;18.00;5.47;;;;;;;10.83;100.00;101697.25;5005854;28;20168;-73
2023/06/02 05:14:53;;;;;;;21.45;5.97;;;;;;;10.88;100.00;101706.03;5006626;28;20053;-75
2023/06/02 05:17:22;;;;;;;19.15;5.82;;;;;;;10.88;100.00;101694.88;5006504;28;20056;-74
2023/06/02 05:19:53;;;;;;;21.40;6.25;;;;;;;10.83;100.00;101700.03;5006813;28;20056;-76
2023/06/02 05:22:20;;;;;;;14.40;4.85;;;;;;;10.86;100.00;101694.47;5012312;28;20073;-75
2023/06/02 05:24:47;;;;;;;16.10;6.07;;;;;;;10.88;100.00;101700.44;5007602;28;20081;-72
2023/06/02 05:27:14;;;;;;;19.80;5.93;;;;;;;10.90;100.00;101698.06;5007313;28;20053;-70
2023/06/02 05:29:40;;;;;;;20.05;5.00;;;;;;;10.97;100.00;101702.84;5014053;28;20152;-72
2023/06/02 05:32:08;;;;;;;15.02;6.07;;;;;;;10.92;100.00;101701.25;5013237;28;20053;-75
2023/06/02 05:34:35;;;;;;;18.02;5.45;;;;;;;10.96;100.00;101706.78;5017980;28;20050;-76
2023/06/02 05:37:02;;;;;;;25.92;6.28;;;;;;;10.94;100.00;101703.63;5008601;28;20084;-74
2023/06/02 05:39:29;;;;;;;18.25;5.68;;;;;;;11.00;100.00;101700.03;5008628;28;20047;-75
2023/06/02 05:41:56;;;;;;;18.25;6.13;;;;;;;10.97;100.00;101698.06;5009810;28;20057;-75
2023/06/02 05:44:22;;;;;;;23.08;6.07;;;;;;;11.02;100.00;101696.88;5019412;28;20149;-75
2023/06/02 05:46:49;;;;;;;23.02;6.70;;;;;;;11.07;100.00;101708.41;5014505;28;20050;-73
2023/06/02 05:49:15;;;;;;;19.25;6.88;;;;;;;11.13;100.00;101701.25;5017823;28;20476;-74
2023/06/02 05:51:42;;;;;;;14.30;5.30;;;;;;;11.15;100.00;101707.22;5025029;28;20061;-72
2023/06/02 05:54:09;;;;;;;13.98;6.07;;;;;;;11.19;100.00;101712.78;5008935;28;20637;-74
2023/06/02 05:56:36;;;;;;;14.13;4.93;;;;;;;11.15;100.00;101704.44;5009681;28;20050;-74
2023/06/02 05:59:03;;;;;;;14.80;5.30;;;;;;;11.07;100.00;101699.28;5013019;28;20069;-71
2023/06/02 06:01:30;;;;;;;17.40;5.35;;;;;;;11.07;100.00;101705.63;5016670;28;20100;-75
2023/06/02 06:03:56;;;;;;;18.27;6.15;;;;;;;11.12;100.00;101702.44;5008091;28;20137;-73
2023/06/02 06:06:23;;;;;;;19.25;5.93;;;;;;;11.11;100.00;101698.06;5009305;28;20054;-74
2023/06/02 06:08:50;;;;;;;18.58;5.95;;;;;;;11.04;100.00;101700.84;5009673;28;20046;-73
2023/06/02 06:11:17;;;;;;;21.45;5.82;;;;;;;11.15;100.00;101703.63;5008102;28;20124;-73
2023/06/02 06:13:43;;;;;;;19.52;5.70;;;;;;;11.21;100.00;101696.47;5010039;28;20096;-74
2023/06/02 06:16:10;;;;;;;24.17;6.90;;;;;;;11.25;100.00;101700.88;5009508;28;20085;-74
2023/06/02 06:18:37;;;;;;;16.80;5.50;;;;;;;11.28;100.00;101707.66;5021030;28;20049;-69
2023/06/02 06:21:03;;;;;;;18.23;5.38;;;;;;;11.21;100.00;101708.41;5007817;28;20520;-76
2023/06/02 06:23:30;;;;;;;20.02;6.20;;;;;;;11.24;100.00;101710.41;5008000;28;20088;-73
2023/06/02 06:25:56;;;;;;;17.10;5.95;;;;;;;11.26;100.00;101705.25;5017225;28;20185;-75
2023/06/02 06:28:23;;;;;;;25.25;5.72;;;;;;;11.29;100.00;101710.03;5009509;28;20042;-76
2023/06/02 06:30:50;;;;;;;26.77;6.90;;;;;;;11.36;100.00;101707.25;5008189;28;20060;-74
2023/06/02 06:33:16;;;;;;;15.65;5.30;;;;;;;11.35;100.00;101707.63;5018037;28;20052;-73
2023/06/02 06:35:43;;;;;;;19.17;5.57;;;;;;;11.44;100.00;101708.81;5014501;28;20117;-75
2023/06/02 06:38:09;;;;;;;20.55;6.63;;;;;;;11.47;100.00;101710.81;5008121;28;20045;-74
2023/06/02 06:40:36;;;;;;;22.83;6.40;;;;;;;11.56;100.00;101713.97;5009068;28;20127;-77
2023/06/02 06:43:02;;;;;;;19.55;6.25;;;;;;;11.62;100.00;101717.94;5012075;28;20073;-76
2023/06/02 06:45:48;;;;;;;15.60;5.65;;;;;;;11.71;100.00;101717.50;5015600;28;20576;-73
2023/06/02 06:48:14;;;;;;;19.73;6.53;;;;;;;11.72;100.00;101722.69;5008662;28;20737;-78
2023/06/02 06:50:41;;;;;;;19.35;5.47;;;;;;;11.74;100.00;101727.84;5008929;28;20085;-74
2023/06/02 06:53:09;;;;;;;18.77;5.72;;;;;;;11.75;100.00;101721.09;5012647;28;20087;-75
2023/06/02 06:55:36;;;;;;;17.90;5.63;;;;;;;11.70;100.00;101716.72;5006772;28;20610;-75
2023/06/02 06:58:05;;;;;;;17.67;5.50;;;;;;;11.75;100.00;101724.66;5007764;28;20566;-72
2023/06/02 07:00:32;;;;;;;18.63;6.40;;;;;;;11.72;100.00;101725.47;5008354;28;20120;-75
2023/06/02 07:02:58;;;;;;;20.77;6.00;;;;;;;11.79;100.00;101733.81;5012041;28;20148;-75
2023/06/02 07:05:25;;;;;;;23.92;5.55;;;;;;;11.83;100.00;101728.25;5006269;28;20052;-73
2023/06/02 07:07:52;;;;;;;17.33;6.00;;;;;;;11.90;100.00;101729.03;5008443;28;20041;-73
2023/06/02 07:10:19;;;;;;;21.02;7.25;;;;;;;11.98;100.00;101727.81;5008933;28;20069;-73
2023/06/02 07:12:46;;;;;;;15.40;5.55;;;;;;;11.95;100.00;101717.44;5008851;28;20279;-75
2023/06/02 07:15:12;;;;;;;20.88;5.50;;;;;;;11.97;100.00;101723.44;5009861;28;20123;-76
2023/06/02 07:17:40;;;;;;;17.42;5.13;;;;;;;12.08;100.00;101740.91;5016675;28;20491;-77
2023/06/02 07:20:11;;;;;;;19.70;5.55;;;;;;;12.05;100.00;101730.56;5004733;28;20045;-75
2023/06/02 07:22:39;;;;;;;15.15;4.88;;;;;;;12.03;100.00;101730.19;5008699;28;20100;-73
2023/06/02 07:25:06;;;;;;;16.80;4.65;;;;;;;12.08;100.00;101728.94;5008538;28;20492;-76
2023/06/02 07:27:33;;;;;;;12.25;5.25;;;;;;;12.15;100.00;101731.72;5015169;28;20049;-75
2023/06/02 07:30:00;;;;;;;15.82;5.05;;;;;;;12.17;100.00;101726.53;5008137;28;20048;-74
2023/06/02 07:32:27;;;;;;;16.70;5.43;;;;;;;12.21;100.00;101727.31;5008010;28;20046;-76
2023/06/02 07:34:54;;;;;;;11.93;4.80;;;;;;;12.23;100.00;101734.06;5007278;28;20064;-76
2023/06/02 07:37:20;;;;;;;18.88;5.28;;;;;;;12.28;100.00;101732.84;5007419;28;20038;-75
2023/06/02 07:39:47;;;;;;;23.70;5.30;;;;;;;12.34;100.00;101734.03;5006641;28;20060;-74
2023/06/02 07:42:13;;;;;;;16.02;5.32;;;;;;;12.43;100.00;101735.22;5012919;28;20076;-74
2023/06/02 07:44:40;;;;;;;19.90;6.10;;;;;;;12.57;100.00;101729.56;5010799;28;20041;-74
2023/06/02 07:47:07;;;;;;;17.48;4.80;;;;;;;12.61;100.00;101734.31;4999869;28;20046;-74
2023/06/02 07:49:34;;;;;;;17.60;5.07;;;;;;;12.66;100.00;101720.72;5007322;28;20046;-73
2023/06/02 07:52:01;;;;;;;15.38;5.35;;;;;;;12.69;100.00;101735.88;5007280;28;20085;-74
2023/06/02 07:54:28;;;;;;;15.30;5.32;;;;;;;12.77;100.00;101731.84;5007329;28;20073;-74
2023/06/02 07:56:54;;;;;;;17.95;5.60;;;;;;;12.87;100.00;101733.78;5021610;28;20400;-75
2023/06/02 07:59:23;;;;;;;21.92;6.22;;;;;;;12.89;100.00;101739.75;5008069;28;20080;-76
2023/06/02 08:01:50;;;;;;;13.57;4.53;;;;;;;12.89;100.00;101739.75;5010867;28;20045;-73
2023/06/02 08:04:16;;;;;;;15.32;4.97;;;;;;;12.86;100.00;101741.34;5005153;28;20483;-75
2023/06/02 08:06:43;;;;;;;15.80;4.65;;;;;;;12.93;100.00;101741.28;5015290;28;20111;-69
2023/06/02 08:09:10;;;;;;;17.80;4.95;;;;;;;12.99;100.00;101738.88;5006308;28;20073;-70
2023/06/02 08:11:36;;;;;;;15.43;4.28;;;;;;;13.09;100.00;101738.78;5006750;28;20073;-75
2023/06/02 08:14:03;;;;;;;14.27;4.28;;;;;;;13.08;100.00;101742.00;5014914;28;20057;-75
2023/06/02 08:16:29;;;;;;;15.07;4.05;;;;;;;13.13;100.00;101735.97;5007458;28;20054;-71
2023/06/02 08:19:10;;;;;;;15.73;4.28;;;;;;;13.28;100.00;101745.81;5006649;28;20067;-74
2023/06/02 08:21:40;;;;;;;18.08;4.68;;;;;;;13.37;100.00;101743.38;5006994;28;20141;-75
2023/06/02 08:24:07;;;;;;;15.32;4.05;;;;;;;13.47;100.00;101743.28;4999860;28;20670;-71
2023/06/02 08:26:34;;;;;;;13.10;3.67;;;;;;;13.57;100.00;101750.00;5006979;28;20504;-73
2023/06/02 08:29:00;;;;;;;13.63;3.22;;;;;;;13.67;100.00;101749.09;5006600;28;21374;-69
2023/06/02 08:31:27;;;;;;;17.42;3.97;;;;;;;13.67;100.00;101760.28;5004309;28;20049;-76
2023/06/02 08:33:53;;;;;;;16.55;3.40;;;;;;;13.67;100.00;101743.53;5004751;28;20064;-73
2023/06/02 08:36:20;;;;;;;19.13;4.35;;;;;;;13.81;100.00;101755.31;5007385;28;20569;-73
2023/06/02 08:38:51;;;;;;;11.38;3.17;;;;;;;13.90;100.00;101738.88;5014027;28;20085;-73
2023/06/02 08:41:18;;;;;;;22.75;5.57;;;;;;;13.90;100.00;101749.25;5007193;28;20120;-74
2023/06/02 08:43:44;;;;;;;15.15;3.10;;;;;;;13.95;100.00;101744.03;5007842;28;20120;-74
2023/06/02 08:46:15;;;;;;;14.25;3.83;;;;;;;13.96;100.00;101750.38;5013525;28;20046;-72
2023/06/02 08:48:45;;;;;;;15.75;3.78;;;;;;;14.05;100.00;101742.31;5015283;28;20057;-74
2023/06/02 08:51:21;;;;;;;14.85;3.20;;;;;;;14.12;100.00;101748.63;5011109;28;20045;-74
2023/06/02 08:53:48;;;;;;;17.00;3.95;;;;;;;14.14;100.00;101742.59;5008225;28;20120;-77
2023/06/02 08:56:15;;;;;;;14.15;4.85;;;;;;;14.09;100.00;101745.84;5006946;28;20471;-74
2023/06/02 08:58:46;;;;;;;12.15;3.53;;;;;;;14.05;100.00;101750.69;5007105;28;20077;-74
2023/06/02 09:01:13;;;;;;;14.10;3.22;;;;;;;14.13;100.00;101752.19;5022277;28;20045;-73
2023/06/02 09:03:40;;;;;;;16.00;2.95;;;;;;;14.15;100.00;101746.97;5006757;28;20057;-73
2023/06/02 09:06:26;;;;;;;15.18;4.10;;;;;;;14.22;100.00;101746.91;5007576;28;20049;-74
2023/06/02 09:09:01;;;;;;;19.25;4.22;;;;;;;14.45;100.00;101752.63;5010937;28;20081;-73
2023/06/02 09:11:30;;;;;;;16.15;3.72;;;;;;;14.36;100.00;101743.94;5010884;28;20050;-73
2023/06/02 09:13:57;;;;;;;14.70;3.80;;;;;;;14.31;100.00;101744.38;5018586;28;20535;-73
2023/06/02 09:16:36;;;;;;;14.32;3.47;;;;;;;14.27;100.00;101738.03;5011336;28;20053;-75
2023/06/02 09:19:03;;;;;;;13.43;4.13;;;;;;;14.28;100.00;101748.81;5010758;28;20443;-73
2023/06/02 09:21:32;;;;;;;22.23;3.72;;;;;;;14.36;100.00;101746.72;5017538;28;20073;-73
2023/06/02 09:24:01;;;;;;;17.45;3.97;;;;;;;14.48;100.00;101744.19;5008477;28;20412;-74
2023/06/02 09:26:31;;;;;;;22.80;5.18;;;;;;;14.67;100.00;101754.72;5009195;28;20926;-73
2023/06/02 09:29:08;;;;;;;14.90;4.00;;;;;;;14.78;100.00;101751.75;5010295;28;20050;-73
2023/06/02 09:31:45;;;;;;;15.88;3.40;;;;;;;14.84;100.00;101747.28;5012816;28;20567;-75
2023/06/02 09:34:15;;;;;;;13.20;3.00;;;;;;;14.80;100.00;101749.34;5003621;28;20061;-74
2023/06/02 09:36:43;;;;;;;17.67;3.70;;;;;;;14.71;100.00;101746.28;5018434;28;20072;-74
2023/06/02 09:39:10;;;;;;;13.00;3.63;;;;;;;14.77;100.00;101745.41;5010582;28;20173;-74
2023/06/02 09:41:40;;;;;;;15.90;4.22;;;;;;;14.90;100.00;101751.19;5018229;28;20392;-74
2023/06/02 09:44:14;;;;;;;17.08;3.22;;;;;;;14.82;100.00;101744.13;5005837;28;20134;-75
2023/06/02 09:46:43;;;;;;;13.13;3.65;;;;;;;14.81;100.00;101751.72;5012729;28;20129;-76
2023/06/02 09:49:10;;;;;;;15.90;4.15;;;;;;;14.92;100.00;101748.75;5009925;28;20069;-75
2023/06/02 09:51:39;;;;;;;16.77;3.83;;;;;;;14.83;100.00;101740.88;5010238;28;20053;-74
2023/06/02 09:54:09;;;;;;;14.20;4.20;;;;;;;14.90;100.00;101742.81;5025076;28;20559;-73
2023/06/02 09:56:37;;;;;;;19.02;4.30;;;;;;;15.05;100.00;101743.38;5008394;28;20080;-73
2023/06/02 09:59:05;;;;;;;13.10;3.97;;;;;;;15.17;100.00;101743.59;5013250;28;20045;-75
2023/06/02 10:01:33;;;;;;;23.73;3.97;;;;;;;15.32;100.00;101738.53;5016570;28;20045;-73
2023/06/02 10:04:01;;;;;;;16.88;4.60;;;;;;;15.31;100.00;101746.16;5009030;28;20092;-71
2023/06/02 10:07:06;;;;;;;13.13;3.58;;;;;;;15.31;100.00;101746.16;5008974;28;20467;-74
2023/06/02 10:09:44;;;;;;;16.52;4.13;;;;;;;15.27;100.00;101742.63;5012472;28;20050;-73
2023/06/02 10:12:30;;;;;;;18.50;4.72;;;;;;;15.43;100.00;101745.59;5000734;28;20085;-73
2023/06/02 10:15:08;;;;;;;15.85;4.38;;;;;;;15.73;100.00;101737.00;5024061;28;20120;-74
2023/06/02 10:18:04;;;;;;;12.23;3.75;;;;;;;15.96;100.00;101739.78;5009460;28;20085;-74
2023/06/02 10:21:04;;;;;;;14.57;3.78;;;;;;;16.15;100.00;101736.22;5009375;28;20042;-74
2023/06/02 10:23:47;;;;;;;15.07;4.28;;;;;;;16.36;100.00;101740.63;4995019;28;20049;-73
2023/06/02 10:26:49;;;;;;;14.38;4.03;;;;;;;16.55;100.00;101739.81;5008751;28;20152;-71
2023/06/02 10:29:16;;;;;;;17.70;4.22;;;;;;;16.69;100.00;101739.50;4987099;28;20038;-72
2023/06/02 10:31:44;;;;;;;16.73;5.00;;;;;;;16.69;100.00;101731.88;5001191;28;20084;-73
2023/06/02 10:34:37;;;;;;;11.85;4.13;;;;;;;16.87;100.00;101728.63;5009381;28;20045;-74
2023/06/02 10:37:04;;;;;;;15.43;4.32;;;;;;;16.94;100.00;101737.69;5020793;28;20115;-75
2023/06/02 10:39:53;;;;;;;16.25;4.40;;;;;;;17.09;100.00;101736.13;5014100;28;20072;-75
2023/06/02 10:42:24;;;;;;;14.55;4.10;;;;;;;17.01;100.00;101723.47;5005606;28;20069;-72
2023/06/02 10:44:52;;;;;;;18.60;4.30;;;;;;;17.08;100.00;101723.31;5007227;28;20058;-75
2023/06/02 10:47:18;;;;;;;20.35;4.55;;;;;;;17.03;100.00;101723.84;5008238;28;20164;-75
2023/06/02 10:50:03;;;;;;;17.65;4.22;;;;;;;17.01;100.00;101719.88;5000621;28;20126;-74
2023/06/02 10:53:00;;;;;;;16.00;4.18;;;;;;;16.93;100.00;101729.72;5006623;28;20515;-73
2023/06/02 10:55:28;;;;;;;17.05;4.88;;;;;;;17.04;100.00;101727.44;5005980;28;20058;-72
2023/06/02 10:57:58;;;;;;;15.25;3.90;;;;;;;17.15;100.00;101734.41;5001929;28;20058;-73
2023/06/02 11:03:01;;;;;;;16.98;4.68;;;;;;;17.17;100.00;101734.75;5014391;28;20100;-73
2023/06/02 11:05:33;;;;;;;17.23;5.60;;;;;;;17.26;100.00;101736.97;5005758;28;20145;-70
2023/06/02 11:08:12;;;;;;;12.85;4.20;;;;;;;17.13;100.00;101738.88;5001373;28;20109;-73
2023/06/02 11:10:58;;;;;;;18.58;4.82;;;;;;;17.12;100.00;101729.66;5008615;28;20169;-75
2023/06/02 11:13:28;;;;;;;25.38;4.57;;;;;;;17.22;100.00;101731.41;5009690;28;20064;-72
2023/06/02 11:15:58;;;;;;;16.35;4.88;;;;;;;17.24;100.00;101734.59;5019414;28;20081;-73
2023/06/02 11:18:27;;;;;;;14.25;4.38;;;;;;;17.32;100.00;101733.16;5016785;28;20050;-73
2023/06/02 11:21:19;;;;;;;13.98;4.35;;;;;;;17.32;100.00;101730.38;5013366;28;20053;-75